Terminal Aerodrome Forecast
Issued by NWS

Home | Current Version | Previous Version | Graphics & Text | Print | Product List | Glossary On
Versions: 1 2 3 4 5 6 7 8 9 10 11 12 13 14 15 16
000
FTUS42 KMHX 251727
TAFOAJ
TAF
KOAJ 251727Z 2518/2618 00000KT P6SM SCT015 BKN250
     FM260100 02008KT 4SM -RA BR OVC007
     FM260400 03012KT 3SM -SNRA BR OVC005
     FM261000 36010G18KT 3SM -RA BR OVC005
     FM261400 01008KT 4SM BR OVC005
      AMD LTD TO CLD VIS AND WIND=

USA.gov is the U.S. government's official web portal to all federal, state and local government web resources and services.